sensor_id;sensor_type;location;lat;lon;timestamp;P1;durP1;ratioP1;P2;durP2;ratioP2
58615;SDS011;44385;51.992;4.206;2023-11-21T00:01:55;13.32;;;5.07;;
58615;SDS011;44385;51.992;4.206;2023-11-21T00:04:22;11.25;;;3.90;;
58615;SDS011;44385;51.992;4.206;2023-11-21T00:06:51;12.57;;;4.00;;
58615;SDS011;44385;51.992;4.206;2023-11-21T00:09:21;11.60;;;4.47;;
58615;SDS011;44385;51.992;4.206;2023-11-21T00:11:49;15.55;;;4.63;;
58615;SDS011;44385;51.992;4.206;2023-11-21T00:14:17;11.02;;;4.40;;
58615;SDS011;44385;51.992;4.206;2023-11-21T00:16:44;14.57;;;4.50;;
58615;SDS011;44385;51.992;4.206;2023-11-21T00:19:12;23.23;;;6.68;;
58615;SDS011;44385;51.992;4.206;2023-11-21T00:21:39;16.73;;;4.03;;
58615;SDS011;44385;51.992;4.206;2023-11-21T00:24:05;11.93;;;4.20;;
58615;SDS011;44385;51.992;4.206;2023-11-21T00:26:32;7.05;;;2.95;;
58615;SDS011;44385;51.992;4.206;2023-11-21T00:29:01;6.60;;;3.67;;
58615;SDS011;44385;51.992;4.206;2023-11-21T00:31:29;11.57;;;3.08;;
58615;SDS011;44385;51.992;4.206;2023-11-21T00:33:56;14.57;;;3.05;;
58615;SDS011;44385;51.992;4.206;2023-11-21T00:36:23;13.75;;;3.08;;
58615;SDS011;44385;51.992;4.206;2023-11-21T00:38:51;5.43;;;2.20;;
58615;SDS011;44385;51.992;4.206;2023-11-21T00:41:17;8.57;;;2.05;;
58615;SDS011;44385;51.992;4.206;2023-11-21T00:43:44;7.70;;;2.63;;
58615;SDS011;44385;51.992;4.206;2023-11-21T00:46:11;5.55;;;2.28;;
58615;SDS011;44385;51.992;4.206;2023-11-21T00:48:39;5.22;;;2.10;;
58615;SDS011;44385;51.992;4.206;2023-11-21T00:51:06;9.13;;;2.70;;
58615;SDS011;44385;51.992;4.206;2023-11-21T00:53:32;7.05;;;2.38;;
58615;SDS011;44385;51.992;4.206;2023-11-21T00:55:58;7.20;;;2.80;;
58615;SDS011;44385;51.992;4.206;2023-11-21T00:58:25;7.10;;;2.75;;
58615;SDS011;44385;51.992;4.206;2023-11-21T01:00:51;11.25;;;3.05;;
58615;SDS011;44385;51.992;4.206;2023-11-21T01:03:18;8.13;;;2.80;;
58615;SDS011;44385;51.992;4.206;2023-11-21T01:05:45;8.07;;;2.60;;
58615;SDS011;44385;51.992;4.206;2023-11-21T01:08:12;8.02;;;2.97;;
58615;SDS011;44385;51.992;4.206;2023-11-21T01:10:39;4.75;;;2.10;;
58615;SDS011;44385;51.992;4.206;2023-11-21T01:13:05;8.25;;;3.00;;
58615;SDS011;44385;51.992;4.206;2023-11-21T01:15:32;7.00;;;2.78;;
58615;SDS011;44385;51.992;4.206;2023-11-21T01:17:58;6.35;;;2.53;;
58615;SDS011;44385;51.992;4.206;2023-11-21T01:20:25;5.20;;;2.35;;
58615;SDS011;44385;51.992;4.206;2023-11-21T01:22:52;9.40;;;2.53;;
58615;SDS011;44385;51.992;4.206;2023-11-21T01:25:19;4.03;;;2.40;;
58615;SDS011;44385;51.992;4.206;2023-11-21T01:27:46;4.97;;;1.83;;
58615;SDS011;44385;51.992;4.206;2023-11-21T01:30:13;3.58;;;1.70;;
58615;SDS011;44385;51.992;4.206;2023-11-21T01:32:41;9.88;;;1.77;;
58615;SDS011;44385;51.992;4.206;2023-11-21T01:35:09;4.57;;;1.60;;
58615;SDS011;44385;51.992;4.206;2023-11-21T01:37:35;4.20;;;2.10;;
58615;SDS011;44385;51.992;4.206;2023-11-21T01:40:04;6.85;;;1.83;;
58615;SDS011;44385;51.992;4.206;2023-11-21T01:42:38;4.30;;;1.80;;
58615;SDS011;44385;51.992;4.206;2023-11-21T01:45:05;5.10;;;1.90;;
58615;SDS011;44385;51.992;4.206;2023-11-21T01:47:32;6.88;;;1.85;;
58615;SDS011;44385;51.992;4.206;2023-11-21T01:50:01;5.80;;;2.45;;
58615;SDS011;44385;51.992;4.206;2023-11-21T01:52:29;3.58;;;1.85;;
58615;SDS011;44385;51.992;4.206;2023-11-21T01:54:56;4.15;;;1.63;;
58615;SDS011;44385;51.992;4.206;2023-11-21T01:57:24;3.17;;;1.77;;
58615;SDS011;44385;51.992;4.206;2023-11-21T01:59:51;4.70;;;1.90;;
58615;SDS011;44385;51.992;4.206;2023-11-21T02:02:18;7.25;;;1.92;;
58615;SDS011;44385;51.992;4.206;2023-11-21T02:04:47;6.60;;;1.88;;
58615;SDS011;44385;51.992;4.206;2023-11-21T02:07:15;5.65;;;1.80;;
58615;SDS011;44385;51.992;4.206;2023-11-21T02:09:44;6.07;;;2.28;;
58615;SDS011;44385;51.992;4.206;2023-11-21T02:12:11;3.97;;;2.30;;
58615;SDS011;44385;51.992;4.206;2023-11-21T02:14:39;4.38;;;2.53;;
58615;SDS011;44385;51.992;4.206;2023-11-21T02:17:05;5.78;;;2.33;;
58615;SDS011;44385;51.992;4.206;2023-11-21T02:19:32;6.25;;;2.78;;
58615;SDS011;44385;51.992;4.206;2023-11-21T02:21:59;10.13;;;3.08;;
58615;SDS011;44385;51.992;4.206;2023-11-21T02:24:31;6.78;;;2.50;;
58615;SDS011;44385;51.992;4.206;2023-11-21T02:26:58;3.58;;;2.25;;
58615;SDS011;44385;51.992;4.206;2023-11-21T02:29:25;5.63;;;2.80;;
58615;SDS011;44385;51.992;4.206;2023-11-21T02:31:53;7.97;;;2.80;;
58615;SDS011;44385;51.992;4.206;2023-11-21T02:34:20;5.85;;;2.85;;
58615;SDS011;44385;51.992;4.206;2023-11-21T02:36:47;10.65;;;2.97;;
58615;SDS011;44385;51.992;4.206;2023-11-21T02:39:14;8.23;;;3.35;;
58615;SDS011;44385;51.992;4.206;2023-11-21T02:41:43;6.35;;;3.13;;
58615;SDS011;44385;51.992;4.206;2023-11-21T02:44:13;5.78;;;2.95;;
58615;SDS011;44385;51.992;4.206;2023-11-21T02:46:40;8.65;;;2.83;;
58615;SDS011;44385;51.992;4.206;2023-11-21T02:49:06;7.38;;;2.75;;
58615;SDS011;44385;51.992;4.206;2023-11-21T02:51:35;4.13;;;3.67;;
58615;SDS011;44385;51.992;4.206;2023-11-21T02:54:03;7.30;;;3.22;;
58615;SDS011;44385;51.992;4.206;2023-11-21T02:56:31;10.15;;;3.83;;
58615;SDS011;44385;51.992;4.206;2023-11-21T02:58:59;7.50;;;2.70;;
58615;SDS011;44385;51.992;4.206;2023-11-21T03:01:26;8.50;;;3.53;;
58615;SDS011;44385;51.992;4.206;2023-11-21T03:03:53;8.02;;;4.13;;
58615;SDS011;44385;51.992;4.206;2023-11-21T03:06:20;9.40;;;3.50;;
58615;SDS011;44385;51.992;4.206;2023-11-21T03:08:47;11.07;;;3.78;;
58615;SDS011;44385;51.992;4.206;2023-11-21T03:11:16;10.30;;;3.47;;
58615;SDS011;44385;51.992;4.206;2023-11-21T03:13:42;8.07;;;3.17;;
58615;SDS011;44385;51.992;4.206;2023-11-21T03:16:12;10.27;;;4.00;;
58615;SDS011;44385;51.992;4.206;2023-11-21T03:18:40;13.52;;;3.83;;
58615;SDS011;44385;51.992;4.206;2023-11-21T03:21:07;10.15;;;3.92;;
58615;SDS011;44385;51.992;4.206;2023-11-21T03:23:34;10.07;;;3.55;;
58615;SDS011;44385;51.992;4.206;2023-11-21T03:26:00;11.25;;;3.72;;
58615;SDS011;44385;51.992;4.206;2023-11-21T03:28:26;10.70;;;3.95;;
58615;SDS011;44385;51.992;4.206;2023-11-21T03:30:53;11.63;;;4.75;;
58615;SDS011;44385;51.992;4.206;2023-11-21T03:33:21;12.20;;;4.53;;
58615;SDS011;44385;51.992;4.206;2023-11-21T03:35:51;9.98;;;4.47;;
58615;SDS011;44385;51.992;4.206;2023-11-21T03:38:18;8.65;;;4.00;;
58615;SDS011;44385;51.992;4.206;2023-11-21T03:40:44;12.50;;;4.25;;
58615;SDS011;44385;51.992;4.206;2023-11-21T03:43:12;8.75;;;3.50;;
58615;SDS011;44385;51.992;4.206;2023-11-21T03:45:38;11.63;;;4.30;;
58615;SDS011;44385;51.992;4.206;2023-11-21T03:48:06;12.15;;;4.47;;
58615;SDS011;44385;51.992;4.206;2023-11-21T03:50:33;9.73;;;3.45;;
58615;SDS011;44385;51.992;4.206;2023-11-21T03:53:00;8.07;;;3.15;;
58615;SDS011;44385;51.992;4.206;2023-11-21T03:55:26;8.48;;;3.67;;
58615;SDS011;44385;51.992;4.206;2023-11-21T03:57:53;7.93;;;3.47;;
58615;SDS011;44385;51.992;4.206;2023-11-21T04:00:20;8.70;;;4.00;;
58615;SDS011;44385;51.992;4.206;2023-11-21T04:02:46;7.05;;;3.50;;
58615;SDS011;44385;51.992;4.206;2023-11-21T04:05:17;7.00;;;2.97;;
58615;SDS011;44385;51.992;4.206;2023-11-21T04:07:47;7.05;;;3.33;;
58615;SDS011;44385;51.992;4.206;2023-11-21T04:10:14;4.95;;;3.05;;
58615;SDS011;44385;51.992;4.206;2023-11-21T04:12:41;5.53;;;3.38;;
58615;SDS011;44385;51.992;4.206;2023-11-21T04:15:08;6.85;;;3.17;;
58615;SDS011;44385;51.992;4.206;2023-11-21T04:17:34;8.80;;;3.30;;
58615;SDS011;44385;51.992;4.206;2023-11-21T04:20:01;7.38;;;3.30;;
58615;SDS011;44385;51.992;4.206;2023-11-21T04:22:28;5.38;;;2.30;;
58615;SDS011;44385;51.992;4.206;2023-11-21T04:24:56;6.20;;;2.00;;
58615;SDS011;44385;51.992;4.206;2023-11-21T04:27:22;7.35;;;2.08;;
58615;SDS011;44385;51.992;4.206;2023-11-21T04:29:49;7.07;;;2.50;;
58615;SDS011;44385;51.992;4.206;2023-11-21T04:32:16;3.47;;;2.28;;
58615;SDS011;44385;51.992;4.206;2023-11-21T04:34:42;6.38;;;2.00;;
58615;SDS011;44385;51.992;4.206;2023-11-21T04:37:09;7.30;;;2.35;;
58615;SDS011;44385;51.992;4.206;2023-11-21T04:39:36;4.20;;;2.08;;
58615;SDS011;44385;51.992;4.206;2023-11-21T04:42:04;5.15;;;2.20;;
58615;SDS011;44385;51.992;4.206;2023-11-21T04:44:30;5.78;;;2.08;;
58615;SDS011;44385;51.992;4.206;2023-11-21T04:47:00;4.55;;;1.63;;
58615;SDS011;44385;51.992;4.206;2023-11-21T04:49:26;4.82;;;2.03;;
58615;SDS011;44385;51.992;4.206;2023-11-21T04:51:53;7.05;;;2.22;;
58615;SDS011;44385;51.992;4.206;2023-11-21T04:54:19;4.93;;;2.35;;
58615;SDS011;44385;51.992;4.206;2023-11-21T04:56:46;5.32;;;1.80;;
58615;SDS011;44385;51.992;4.206;2023-11-21T04:59:14;3.15;;;2.13;;
58615;SDS011;44385;51.992;4.206;2023-11-21T05:01:40;3.60;;;1.25;;
58615;SDS011;44385;51.992;4.206;2023-11-21T05:04:07;1.98;;;0.98;;
58615;SDS011;44385;51.992;4.206;2023-11-21T05:06:33;1.50;;;1.08;;
58615;SDS011;44385;51.992;4.206;2023-11-21T05:09:00;2.92;;;1.00;;
58615;SDS011;44385;51.992;4.206;2023-11-21T05:11:28;3.40;;;1.00;;
58615;SDS011;44385;51.992;4.206;2023-11-21T05:13:55;3.25;;;0.82;;
58615;SDS011;44385;51.992;4.206;2023-11-21T05:16:25;4.10;;;1.10;;
58615;SDS011;44385;51.992;4.206;2023-11-21T05:18:52;4.07;;;0.90;;
58615;SDS011;44385;51.992;4.206;2023-11-21T05:21:21;1.02;;;0.70;;
58615;SDS011;44385;51.992;4.206;2023-11-21T05:23:50;4.70;;;1.10;;
58615;SDS011;44385;51.992;4.206;2023-11-21T05:26:17;2.88;;;1.30;;
58615;SDS011;44385;51.992;4.206;2023-11-21T05:28:44;3.47;;;1.20;;
58615;SDS011;44385;51.992;4.206;2023-11-21T05:31:11;2.13;;;1.42;;
58615;SDS011;44385;51.992;4.206;2023-11-21T05:33:39;5.10;;;1.23;;
58615;SDS011;44385;51.992;4.206;2023-11-21T05:36:06;2.85;;;1.58;;
58615;SDS011;44385;51.992;4.206;2023-11-21T05:38:33;2.67;;;1.27;;
58615;SDS011;44385;51.992;4.206;2023-11-21T05:41:00;2.97;;;1.75;;
58615;SDS011;44385;51.992;4.206;2023-11-21T05:43:26;5.15;;;2.00;;
58615;SDS011;44385;51.992;4.206;2023-11-21T05:45:54;6.35;;;2.22;;
58615;SDS011;44385;51.992;4.206;2023-11-21T05:48:21;6.40;;;2.55;;
58615;SDS011;44385;51.992;4.206;2023-11-21T05:50:49;4.45;;;2.78;;
58615;SDS011;44385;51.992;4.206;2023-11-21T05:53:16;3.75;;;2.50;;
58615;SDS011;44385;51.992;4.206;2023-11-21T05:55:46;4.03;;;2.00;;
58615;SDS011;44385;51.992;4.206;2023-11-21T05:58:15;3.20;;;2.30;;
58615;SDS011;44385;51.992;4.206;2023-11-21T06:00:42;6.53;;;2.80;;
58615;SDS011;44385;51.992;4.206;2023-11-21T06:03:11;6.60;;;2.95;;
58615;SDS011;44385;51.992;4.206;2023-11-21T06:05:37;8.30;;;2.88;;
58615;SDS011;44385;51.992;4.206;2023-11-21T06:08:05;5.50;;;2.67;;
58615;SDS011;44385;51.992;4.206;2023-11-21T06:10:32;9.98;;;3.20;;
58615;SDS011;44385;51.992;4.206;2023-11-21T06:12:59;5.50;;;2.92;;
58615;SDS011;44385;51.992;4.206;2023-11-21T06:15:25;13.10;;;3.33;;
58615;SDS011;44385;51.992;4.206;2023-11-21T06:17:53;5.25;;;2.20;;
58615;SDS011;44385;51.992;4.206;2023-11-21T06:20:19;3.83;;;2.55;;
58615;SDS011;44385;51.992;4.206;2023-11-21T06:22:47;3.97;;;2.42;;
58615;SDS011;44385;51.992;4.206;2023-11-21T06:25:17;5.85;;;2.38;;
58615;SDS011;44385;51.992;4.206;2023-11-21T06:27:45;6.72;;;2.75;;
58615;SDS011;44385;51.992;4.206;2023-11-21T06:30:12;5.78;;;2.20;;
58615;SDS011;44385;51.992;4.206;2023-11-21T06:32:40;6.60;;;2.53;;
58615;SDS011;44385;51.992;4.206;2023-11-21T06:35:07;3.83;;;2.15;;
58615;SDS011;44385;51.992;4.206;2023-11-21T06:37:35;4.38;;;1.85;;
58615;SDS011;44385;51.992;4.206;2023-11-21T06:40:01;5.55;;;1.70;;
58615;SDS011;44385;51.992;4.206;2023-11-21T06:42:30;5.15;;;1.88;;
58615;SDS011;44385;51.992;4.206;2023-11-21T06:44:58;7.53;;;2.00;;
58615;SDS011;44385;51.992;4.206;2023-11-21T06:47:27;11.20;;;2.33;;
58615;SDS011;44385;51.992;4.206;2023-11-21T06:49:54;5.15;;;1.63;;
58615;SDS011;44385;51.992;4.206;2023-11-21T06:52:21;7.18;;;2.03;;
58615;SDS011;44385;51.992;4.206;2023-11-21T06:54:48;5.43;;;2.60;;
58615;SDS011;44385;51.992;4.206;2023-11-21T06:57:15;5.55;;;2.92;;
58615;SDS011;44385;51.992;4.206;2023-11-21T06:59:47;11.07;;;3.40;;
58615;SDS011;44385;51.992;4.206;2023-11-21T07:02:15;11.13;;;3.30;;
58615;SDS011;44385;51.992;4.206;2023-11-21T07:04:46;16.70;;;3.58;;
58615;SDS011;44385;51.992;4.206;2023-11-21T07:07:13;12.75;;;4.45;;
58615;SDS011;44385;51.992;4.206;2023-11-21T07:09:40;14.80;;;4.22;;
58615;SDS011;44385;51.992;4.206;2023-11-21T07:12:06;11.98;;;4.47;;
58615;SDS011;44385;51.992;4.206;2023-11-21T07:14:33;17.08;;;5.57;;
58615;SDS011;44385;51.992;4.206;2023-11-21T07:17:01;16.60;;;5.45;;
58615;SDS011;44385;51.992;4.206;2023-11-21T07:19:26;15.43;;;5.45;;
58615;SDS011;44385;51.992;4.206;2023-11-21T07:21:54;18.90;;;6.10;;
58615;SDS011;44385;51.992;4.206;2023-11-21T07:24:21;15.88;;;5.50;;
58615;SDS011;44385;51.992;4.206;2023-11-21T07:26:47;14.73;;;5.57;;
58615;SDS011;44385;51.992;4.206;2023-11-21T07:29:14;10.95;;;4.68;;
58615;SDS011;44385;51.992;4.206;2023-11-21T07:31:41;17.98;;;4.90;;
58615;SDS011;44385;51.992;4.206;2023-11-21T07:34:09;21.20;;;4.60;;
58615;SDS011;44385;51.992;4.206;2023-11-21T07:36:37;18.10;;;4.70;;
58615;SDS011;44385;51.992;4.206;2023-11-21T07:39:03;15.02;;;4.80;;
58615;SDS011;44385;51.992;4.206;2023-11-21T07:41:31;13.38;;;3.70;;
58615;SDS011;44385;51.992;4.206;2023-11-21T07:43:58;20.33;;;4.13;;
58615;SDS011;44385;51.992;4.206;2023-11-21T07:46:24;14.50;;;3.70;;
58615;SDS011;44385;51.992;4.206;2023-11-21T07:48:51;11.32;;;3.53;;
58615;SDS011;44385;51.992;4.206;2023-11-21T07:51:19;16.02;;;4.00;;
58615;SDS011;44385;51.992;4.206;2023-11-21T07:53:47;19.57;;;5.17;;
58615;SDS011;44385;51.992;4.206;2023-11-21T07:56:14;17.20;;;4.47;;
58615;SDS011;44385;51.992;4.206;2023-11-21T07:58:40;15.15;;;4.70;;
58615;SDS011;44385;51.992;4.206;2023-11-21T08:01:07;18.83;;;3.90;;
58615;SDS011;44385;51.992;4.206;2023-11-21T08:03:34;14.07;;;3.60;;
58615;SDS011;44385;51.992;4.206;2023-11-21T08:06:00;10.85;;;3.30;;
58615;SDS011;44385;51.992;4.206;2023-11-21T08:08:29;11.95;;;3.85;;
58615;SDS011;44385;51.992;4.206;2023-11-21T08:10:57;10.65;;;2.70;;
58615;SDS011;44385;51.992;4.206;2023-11-21T08:13:23;13.88;;;3.20;;
58615;SDS011;44385;51.992;4.206;2023-11-21T08:15:50;9.43;;;2.50;;
58615;SDS011;44385;51.992;4.206;2023-11-21T08:18:16;12.88;;;2.60;;
58615;SDS011;44385;51.992;4.206;2023-11-21T08:20:44;9.20;;;2.95;;
58615;SDS011;44385;51.992;4.206;2023-11-21T08:23:12;10.60;;;3.10;;
58615;SDS011;44385;51.992;4.206;2023-11-21T08:25:41;7.68;;;2.92;;
58615;SDS011;44385;51.992;4.206;2023-11-21T08:28:12;12.50;;;3.25;;
58615;SDS011;44385;51.992;4.206;2023-11-21T08:30:39;11.30;;;3.30;;
58615;SDS011;44385;51.992;4.206;2023-11-21T08:33:07;7.45;;;2.97;;
58615;SDS011;44385;51.992;4.206;2023-11-21T08:35:33;11.23;;;3.35;;
58615;SDS011;44385;51.992;4.206;2023-11-21T08:37:59;18.60;;;3.45;;
58615;SDS011;44385;51.992;4.206;2023-11-21T08:40:26;15.05;;;3.38;;
58615;SDS011;44385;51.992;4.206;2023-11-21T08:42:54;17.33;;;4.25;;
58615;SDS011;44385;51.992;4.206;2023-11-21T08:45:20;11.05;;;3.45;;
58615;SDS011;44385;51.992;4.206;2023-11-21T08:47:47;11.07;;;3.05;;
58615;SDS011;44385;51.992;4.206;2023-11-21T08:50:16;10.55;;;3.22;;
58615;SDS011;44385;51.992;4.206;2023-11-21T08:52:43;11.48;;;3.08;;
58615;SDS011;44385;51.992;4.206;2023-11-21T08:55:11;13.80;;;3.17;;
58615;SDS011;44385;51.992;4.206;2023-11-21T08:57:38;7.68;;;3.17;;
58615;SDS011;44385;51.992;4.206;2023-11-21T09:00:07;5.30;;;2.17;;
58615;SDS011;44385;51.992;4.206;2023-11-21T09:02:36;12.10;;;2.78;;
58615;SDS011;44385;51.992;4.206;2023-11-21T09:05:03;8.45;;;2.90;;
58615;SDS011;44385;51.992;4.206;2023-11-21T09:07:30;11.05;;;3.00;;
58615;SDS011;44385;51.992;4.206;2023-11-21T09:09:56;7.63;;;2.50;;
58615;SDS011;44385;51.992;4.206;2023-11-21T09:12:23;9.18;;;2.65;;
58615;SDS011;44385;51.992;4.206;2023-11-21T09:14:51;6.88;;;2.20;;
58615;SDS011;44385;51.992;4.206;2023-11-21T09:17:19;6.25;;;2.10;;
58615;SDS011;44385;51.992;4.206;2023-11-21T09:19:45;11.20;;;2.55;;
58615;SDS011;44385;51.992;4.206;2023-11-21T09:22:16;9.05;;;2.15;;
58615;SDS011;44385;51.992;4.206;2023-11-21T09:24:42;10.48;;;2.03;;
58615;SDS011;44385;51.992;4.206;2023-11-21T09:27:11;5.18;;;1.92;;
58615;SDS011;44385;51.992;4.206;2023-11-21T09:29:37;5.28;;;2.05;;
58615;SDS011;44385;51.992;4.206;2023-11-21T09:32:04;9.73;;;1.85;;
58615;SDS011;44385;51.992;4.206;2023-11-21T09:34:33;6.72;;;2.63;;
58615;SDS011;44385;51.992;4.206;2023-11-21T09:39:30;5.22;;;2.15;;
58615;SDS011;44385;51.992;4.206;2023-11-21T09:41:59;11.55;;;2.83;;
58615;SDS011;44385;51.992;4.206;2023-11-21T09:44:31;6.68;;;2.00;;
58615;SDS011;44385;51.992;4.206;2023-11-21T09:46:59;6.60;;;2.40;;
58615;SDS011;44385;51.992;4.206;2023-11-21T09:49:25;5.70;;;2.53;;
58615;SDS011;44385;51.992;4.206;2023-11-21T09:51:54;6.15;;;2.13;;
58615;SDS011;44385;51.992;4.206;2023-11-21T09:56:49;8.07;;;2.40;;
58615;SDS011;44385;51.992;4.206;2023-11-21T09:59:16;7.57;;;2.40;;
58615;SDS011;44385;51.992;4.206;2023-11-21T10:01:42;7.43;;;2.50;;
58615;SDS011;44385;51.992;4.206;2023-11-21T10:04:09;6.00;;;2.50;;
58615;SDS011;44385;51.992;4.206;2023-11-21T10:06:37;3.25;;;2.20;;
58615;SDS011;44385;51.992;4.206;2023-11-21T10:09:05;6.00;;;2.78;;
58615;SDS011;44385;51.992;4.206;2023-11-21T10:11:36;7.38;;;2.60;;
58615;SDS011;44385;51.992;4.206;2023-11-21T10:14:04;5.28;;;2.22;;
58615;SDS011;44385;51.992;4.206;2023-11-21T10:16:30;7.28;;;2.00;;
58615;SDS011;44385;51.992;4.206;2023-11-21T10:18:57;5.93;;;2.00;;
58615;SDS011;44385;51.992;4.206;2023-11-21T10:21:24;3.95;;;1.95;;
58615;SDS011;44385;51.992;4.206;2023-11-21T10:23:51;4.43;;;1.70;;
58615;SDS011;44385;51.992;4.206;2023-11-21T10:26:20;8.18;;;2.40;;
58615;SDS011;44385;51.992;4.206;2023-11-21T10:31:15;8.52;;;2.58;;
58615;SDS011;44385;51.992;4.206;2023-11-21T10:33:42;5.25;;;2.35;;
58615;SDS011;44385;51.992;4.206;2023-11-21T10:36:11;9.73;;;3.25;;
58615;SDS011;44385;51.992;4.206;2023-11-21T10:38:42;11.40;;;3.80;;
58615;SDS011;44385;51.992;4.206;2023-11-21T10:41:15;8.68;;;3.28;;
58615;SDS011;44385;51.992;4.206;2023-11-21T10:43:49;7.03;;;2.83;;
58615;SDS011;44385;51.992;4.206;2023-11-21T10:46:19;9.02;;;4.13;;
58615;SDS011;44385;51.992;4.206;2023-11-21T10:48:46;5.18;;;2.85;;
58615;SDS011;44385;51.992;4.206;2023-11-21T10:51:18;7.45;;;3.38;;
58615;SDS011;44385;51.992;4.206;2023-11-21T10:53:46;8.77;;;3.60;;
58615;SDS011;44385;51.992;4.206;2023-11-21T10:56:15;10.02;;;3.70;;
58615;SDS011;44385;51.992;4.206;2023-11-21T10:58:47;10.30;;;3.78;;
58615;SDS011;44385;51.992;4.206;2023-11-21T11:01:17;10.25;;;3.70;;
58615;SDS011;44385;51.992;4.206;2023-11-21T11:03:46;8.83;;;3.67;;
58615;SDS011;44385;51.992;4.206;2023-11-21T11:06:13;8.95;;;3.38;;
58615;SDS011;44385;51.992;4.206;2023-11-21T11:08:40;11.02;;;3.63;;
58615;SDS011;44385;51.992;4.206;2023-11-21T11:11:06;6.60;;;3.92;;
58615;SDS011;44385;51.992;4.206;2023-11-21T11:13:34;8.60;;;3.85;;
58615;SDS011;44385;51.992;4.206;2023-11-21T11:16:03;8.00;;;3.80;;
58615;SDS011;44385;51.992;4.206;2023-11-21T11:18:32;6.47;;;3.45;;
58615;SDS011;44385;51.992;4.206;2023-11-21T11:21:00;11.90;;;4.05;;
58615;SDS011;44385;51.992;4.206;2023-11-21T11:23:32;7.65;;;3.85;;
58615;SDS011;44385;51.992;4.206;2023-11-21T11:26:05;6.47;;;3.15;;
58615;SDS011;44385;51.992;4.206;2023-11-21T11:28:35;6.82;;;2.88;;
58615;SDS011;44385;51.992;4.206;2023-11-21T11:31:09;6.78;;;2.80;;
58615;SDS011;44385;51.992;4.206;2023-11-21T11:33:38;6.18;;;2.65;;
58615;SDS011;44385;51.992;4.206;2023-11-21T11:38:34;6.28;;;2.67;;
58615;SDS011;44385;51.992;4.206;2023-11-21T11:41:02;8.82;;;3.38;;
58615;SDS011;44385;51.992;4.206;2023-11-21T11:43:29;9.90;;;3.28;;
58615;SDS011;44385;51.992;4.206;2023-11-21T11:45:58;16.17;;;6.00;;
58615;SDS011;44385;51.992;4.206;2023-11-21T11:48:26;9.65;;;3.90;;
58615;SDS011;44385;51.992;4.206;2023-11-21T11:51:02;9.32;;;3.75;;
58615;SDS011;44385;51.992;4.206;2023-11-21T11:53:33;8.55;;;3.85;;
58615;SDS011;44385;51.992;4.206;2023-11-21T11:56:12;6.28;;;4.03;;
58615;SDS011;44385;51.992;4.206;2023-11-21T11:58:45;10.18;;;4.10;;
58615;SDS011;44385;51.992;4.206;2023-11-21T12:01:12;8.05;;;4.43;;
58615;SDS011;44385;51.992;4.206;2023-11-21T12:03:40;5.97;;;4.07;;
58615;SDS011;44385;51.992;4.206;2023-11-21T12:06:06;12.00;;;4.50;;
58615;SDS011;44385;51.992;4.206;2023-11-21T12:08:34;8.82;;;3.85;;
58615;SDS011;44385;51.992;4.206;2023-11-21T12:11:01;7.57;;;4.03;;
58615;SDS011;44385;51.992;4.206;2023-11-21T12:13:27;7.55;;;3.78;;
58615;SDS011;44385;51.992;4.206;2023-11-21T12:15:54;9.70;;;3.88;;
58615;SDS011;44385;51.992;4.206;2023-11-21T12:18:21;7.93;;;3.78;;
58615;SDS011;44385;51.992;4.206;2023-11-21T12:20:50;7.57;;;3.50;;
58615;SDS011;44385;51.992;4.206;2023-11-21T12:23:17;8.93;;;3.80;;
58615;SDS011;44385;51.992;4.206;2023-11-21T12:25:46;6.38;;;3.78;;
58615;SDS011;44385;51.992;4.206;2023-11-21T12:28:15;4.82;;;2.90;;
58615;SDS011;44385;51.992;4.206;2023-11-21T12:30:42;9.60;;;3.30;;
58615;SDS011;44385;51.992;4.206;2023-11-21T12:33:09;3.53;;;3.00;;
58615;SDS011;44385;51.992;4.206;2023-11-21T12:35:38;7.65;;;3.25;;
58615;SDS011;44385;51.992;4.206;2023-11-21T12:38:06;4.60;;;3.00;;
58615;SDS011;44385;51.992;4.206;2023-11-21T12:40:34;5.80;;;3.65;;
58615;SDS011;44385;51.992;4.206;2023-11-21T12:43:03;4.97;;;2.70;;
58615;SDS011;44385;51.992;4.206;2023-11-21T12:45:30;5.60;;;3.08;;
58615;SDS011;44385;51.992;4.206;2023-11-21T12:47:57;7.03;;;3.72;;
58615;SDS011;44385;51.992;4.206;2023-11-21T12:50:26;5.10;;;3.38;;
58615;SDS011;44385;51.992;4.206;2023-11-21T12:52:54;6.13;;;4.33;;
58615;SDS011;44385;51.992;4.206;2023-11-21T12:55:22;7.85;;;3.63;;
58615;SDS011;44385;51.992;4.206;2023-11-21T12:57:50;4.77;;;3.37;;
58615;SDS011;44385;51.992;4.206;2023-11-21T13:00:19;4.68;;;3.13;;
58615;SDS011;44385;51.992;4.206;2023-11-21T13:02:53;3.67;;;3.25;;
58615;SDS011;44385;51.992;4.206;2023-11-21T13:05:24;6.30;;;3.25;;
58615;SDS011;44385;51.992;4.206;2023-11-21T13:07:50;3.80;;;2.88;;
58615;SDS011;44385;51.992;4.206;2023-11-21T13:10:19;4.47;;;3.28;;
58615;SDS011;44385;51.992;4.206;2023-11-21T13:12:52;5.75;;;2.67;;
58615;SDS011;44385;51.992;4.206;2023-11-21T13:15:20;4.03;;;3.22;;
58615;SDS011;44385;51.992;4.206;2023-11-21T13:17:46;2.90;;;2.65;;
58615;SDS011;44385;51.992;4.206;2023-11-21T13:20:13;4.82;;;2.92;;
58615;SDS011;44385;51.992;4.206;2023-11-21T13:22:45;2.83;;;2.10;;
58615;SDS011;44385;51.992;4.206;2023-11-21T13:25:11;5.05;;;2.58;;
58615;SDS011;44385;51.992;4.206;2023-11-21T13:27:40;7.05;;;2.75;;
58615;SDS011;44385;51.992;4.206;2023-11-21T13:30:09;5.75;;;3.05;;
58615;SDS011;44385;51.992;4.206;2023-11-21T13:32:40;4.93;;;2.85;;
58615;SDS011;44385;51.992;4.206;2023-11-21T13:35:07;4.90;;;3.08;;
58615;SDS011;44385;51.992;4.206;2023-11-21T13:37:40;6.03;;;2.90;;
58615;SDS011;44385;51.992;4.206;2023-11-21T13:40:08;5.00;;;2.65;;
58615;SDS011;44385;51.992;4.206;2023-11-21T13:42:39;6.20;;;2.58;;
58615;SDS011;44385;51.992;4.206;2023-11-21T13:45:06;5.35;;;2.85;;
58615;SDS011;44385;51.992;4.206;2023-11-21T13:47:35;4.40;;;2.92;;
58615;SDS011;44385;51.992;4.206;2023-11-21T13:52:29;3.72;;;2.70;;
58615;SDS011;44385;51.992;4.206;2023-11-21T13:54:58;5.18;;;3.80;;
58615;SDS011;44385;51.992;4.206;2023-11-21T13:57:27;6.90;;;3.40;;
58615;SDS011;44385;51.992;4.206;2023-11-21T13:59:54;5.65;;;2.38;;
58615;SDS011;44385;51.992;4.206;2023-11-21T14:02:20;4.38;;;2.55;;
58615;SDS011;44385;51.992;4.206;2023-11-21T14:04:58;6.00;;;2.75;;
58615;SDS011;44385;51.992;4.206;2023-11-21T14:07:28;7.45;;;2.80;;
58615;SDS011;44385;51.992;4.206;2023-11-21T14:10:00;4.93;;;2.67;;
58615;SDS011;44385;51.992;4.206;2023-11-21T14:12:27;4.53;;;2.88;;
58615;SDS011;44385;51.992;4.206;2023-11-21T14:14:53;5.45;;;2.65;;
58615;SDS011;44385;51.992;4.206;2023-11-21T14:17:20;4.43;;;2.67;;
58615;SDS011;44385;51.992;4.206;2023-11-21T14:19:47;4.03;;;2.75;;
58615;SDS011;44385;51.992;4.206;2023-11-21T14:22:18;3.65;;;2.58;;
58615;SDS011;44385;51.992;4.206;2023-11-21T14:24:45;3.72;;;2.42;;
58615;SDS011;44385;51.992;4.206;2023-11-21T14:27:12;5.50;;;2.85;;
58615;SDS011;44385;51.992;4.206;2023-11-21T14:29:41;4.90;;;2.58;;
58615;SDS011;44385;51.992;4.206;2023-11-21T14:32:09;4.88;;;2.72;;
58615;SDS011;44385;51.992;4.206;2023-11-21T14:34:36;5.20;;;3.05;;
58615;SDS011;44385;51.992;4.206;2023-11-21T14:37:03;4.70;;;3.20;;
58615;SDS011;44385;51.992;4.206;2023-11-21T14:39:31;4.20;;;3.65;;
58615;SDS011;44385;51.992;4.206;2023-11-21T14:42:03;4.85;;;3.60;;
58615;SDS011;44385;51.992;4.206;2023-11-21T14:44:29;7.45;;;4.63;;
58615;SDS011;44385;51.992;4.206;2023-11-21T14:47:04;9.30;;;4.93;;
58615;SDS011;44385;51.992;4.206;2023-11-21T14:49:40;6.82;;;5.00;;
58615;SDS011;44385;51.992;4.206;2023-11-21T14:52:17;6.85;;;4.68;;
58615;SDS011;44385;51.992;4.206;2023-11-21T14:57:47;8.82;;;4.70;;
58615;SDS011;44385;51.992;4.206;2023-11-21T15:00:16;7.55;;;4.65;;
58615;SDS011;44385;51.992;4.206;2023-11-21T15:03:02;6.75;;;4.90;;
58615;SDS011;44385;51.992;4.206;2023-11-21T15:05:29;7.30;;;5.07;;